Time;durP1;ratioP1;P1;durP2;ratioP2;P2;SDS_P1;SDS_P2;PMS_P1;PMS_P2;Temp;Humidity;BMP_temperature;BMP_pressure;BME280_temperature;BME280_humidity;BME280_pressure;Samples;Min_cycle;Max_cycle;Signal;HPM_P1;HPM_P2
2022/09/08 00:00:55;;;;;;;7.93;3.05;;;22.20;93.30;;;;;;4970529;28;20022;-87
2022/09/08 00:03:23;;;;;;;7.43;3.00;;;22.20;93.30;;;;;;4954534;29;20026;-86
2022/09/08 00:05:55;;;;;;;4.70;2.78;;;22.10;93.10;;;;;;4965357;28;20027;-87
2022/09/08 00:08:22;;;;;;;7.60;3.03;;;22.10;93.20;;;;;;4951121;29;20020;-87
2022/09/08 00:10:50;;;;;;;7.72;2.97;;;22.00;93.30;;;;;;4955583;28;20115;-83
2022/09/08 00:13:16;;;;;;;7.35;2.85;;;22.00;93.30;;;;;;4947927;29;20024;-83
2022/09/08 00:15:41;;;;;;;11.98;3.10;;;21.90;93.30;;;;;;4950965;29;20024;-83
2022/09/08 00:18:07;;;;;;;7.45;3.05;;;21.90;93.40;;;;;;4940855;29;20023;-83
2022/09/08 00:20:34;;;;;;;10.15;2.95;;;21.80;93.60;;;;;;4954157;29;20039;-83
2022/09/08 00:22:59;;;;;;;5.88;2.72;;;21.80;93.90;;;;;;4954234;29;20535;-81
2022/09/08 00:25:26;;;;;;;7.13;3.17;;;21.80;94.10;;;;;;4945787;29;20126;-82
2022/09/08 00:27:51;;;;;;;6.13;2.88;;;21.70;94.20;;;;;;4951891;29;20027;-82
2022/09/08 00:30:17;;;;;;;7.78;2.72;;;21.70;94.40;;;;;;4954086;29;20142;-87
2022/09/08 00:32:43;;;;;;;7.47;3.20;;;21.70;94.60;;;;;;4954317;28;20046;-87
2022/09/08 00:35:14;;;;;;;5.63;3.00;;;21.70;94.80;;;;;;4937198;29;20099;-87
2022/09/08 00:41:11;;;;;;;9.52;3.15;;;21.70;94.90;;;;;;4972147;28;20089;-87
2022/09/08 00:43:43;;;;;;;8.38;2.70;;;21.70;95.30;;;;;;4973794;28;20030;-89
2022/09/08 00:46:08;;;;;;;10.30;3.25;;;21.70;95.40;;;;;;4957425;28;20138;-87
2022/09/08 00:48:43;;;;;;;4.50;2.00;;;21.60;95.40;;;;;;4973626;28;20442;-88
2022/09/08 00:51:09;;;;;;;7.68;2.20;;;21.60;95.50;;;;;;4975207;28;20516;-88
2022/09/08 00:53:40;;;;;;;9.23;2.30;;;21.50;95.60;;;;;;4973423;28;20110;-88
2022/09/08 00:56:06;;;;;;;7.78;2.15;;;21.40;95.90;;;;;;4976883;28;20034;-87
2022/09/08 00:58:37;;;;;;;6.50;2.40;;;21.40;96.30;;;;;;4973381;28;20069;-89
2022/09/08 01:01:04;;;;;;;5.60;2.40;;;21.30;96.50;;;;;;4973088;28;20081;-89
2022/09/08 01:03:31;;;;;;;8.02;2.25;;;21.30;96.60;;;;;;4981753;28;20081;-90
2022/09/08 01:06:17;;;;;;;5.40;2.10;;;21.20;96.70;;;;;;4993734;28;20023;-89
2022/09/08 01:14:50;;;;;;;5.55;2.25;;;21.00;97.70;;;;;;4979824;28;20063;-89
2022/09/08 01:17:22;;;;;;;8.60;2.92;;;21.00;97.90;;;;;;4962616;28;20043;-89
2022/09/08 01:19:49;;;;;;;6.07;2.50;;;21.00;98.10;;;;;;4979888;28;20026;-87
2022/09/08 01:22:35;;;;;;;8.73;2.80;;;21.00;98.30;;;;;;4962010;28;20045;-89
2022/09/08 01:25:43;;;;;;;5.65;2.53;;;21.00;98.40;;;;;;4961831;28;20536;-89
2022/09/08 01:28:21;;;;;;;9.63;2.70;;;21.00;98.50;;;;;;4982291;28;20026;-88
2022/09/08 01:30:47;;;;;;;6.97;2.45;;;21.00;98.80;;;;;;4986998;28;20037;-89
2022/09/08 01:33:14;;;;;;;9.30;2.60;;;21.00;99.00;;;;;;4978648;28;20473;-88
2022/09/08 01:35:39;;;;;;;5.00;2.35;;;21.00;99.10;;;;;;4963051;28;20029;-89
2022/09/08 01:38:07;;;;;;;7.00;2.40;;;21.00;99.20;;;;;;4961218;28;20134;-88
2022/09/08 01:40:33;;;;;;;6.65;2.53;;;21.00;99.20;;;;;;4978797;28;20056;-87
2022/09/08 01:42:58;;;;;;;8.15;2.63;;;21.00;99.30;;;;;;4983867;28;20027;-89
2022/09/08 01:45:27;;;;;;;7.15;2.88;;;21.00;99.40;;;;;;4974630;28;20085;-89
2022/09/08 01:47:53;;;;;;;6.90;3.05;;;21.00;99.50;;;;;;4978813;28;20034;-88
2022/09/08 01:50:19;;;;;;;7.95;3.15;;;21.00;99.60;;;;;;4980126;28;20023;-89
2022/09/08 01:52:45;;;;;;;9.48;3.30;;;21.00;99.60;;;;;;4965248;28;20074;-89
2022/09/08 01:55:11;;;;;;;6.00;2.97;;;21.00;99.50;;;;;;4980934;28;20098;-89
2022/09/08 01:57:37;;;;;;;7.18;2.95;;;20.90;99.50;;;;;;4980517;28;20491;-90
2022/09/08 02:00:05;;;;;;;8.18;3.22;;;20.90;99.70;;;;;;4977137;28;20106;-89
2022/09/08 02:02:31;;;;;;;7.57;3.20;;;20.80;99.80;;;;;;4982748;28;20109;-91
2022/09/08 02:04:56;;;;;;;12.45;3.17;;;20.80;99.90;;;;;;4977012;28;20069;-90
2022/09/08 02:07:22;;;;;;;6.55;2.70;;;20.80;99.90;;;;;;4976023;28;20467;-91
2022/09/08 02:09:48;;;;;;;7.57;3.03;;;20.80;99.90;;;;;;4950986;28;20035;-88
2022/09/08 02:12:13;;;;;;;7.78;2.92;;;20.80;99.90;;;;;;4960702;28;20023;-90
2022/09/08 02:14:39;;;;;;;8.32;3.25;;;20.80;99.90;;;;;;4984833;28;20535;-90
2022/09/08 02:17:05;;;;;;;7.68;3.10;;;20.70;99.90;;;;;;4992945;28;20034;-90
2022/09/08 02:19:30;;;;;;;8.50;3.75;;;20.70;99.90;;;;;;4977753;28;20059;-90
2022/09/08 02:21:56;;;;;;;9.90;3.08;;;20.70;99.90;;;;;;4960681;28;20071;-90
2022/09/08 02:24:22;;;;;;;5.00;2.65;;;20.70;99.90;;;;;;4948458;28;20066;-90
2022/09/08 02:26:48;;;;;;;10.65;3.65;;;20.70;99.90;;;;;;4950952;28;20026;-90
2022/09/08 02:29:14;;;;;;;8.18;3.13;;;20.60;99.90;;;;;;4960303;28;20043;-92
2022/09/08 02:31:39;;;;;;;10.18;3.35;;;20.60;99.90;;;;;;4974265;28;20029;-90
2022/09/08 02:34:05;;;;;;;8.80;3.08;;;20.60;99.90;;;;;;4953704;28;20034;-90
2022/09/08 02:36:31;;;;;;;9.52;3.17;;;20.60;99.90;;;;;;4983578;28;20384;-90
2022/09/08 02:42:42;;;;;;;7.03;2.63;;;20.50;99.90;;;;;;4934975;29;20500;-91
2022/09/08 02:45:09;;;;;;;6.30;3.20;;;20.50;99.90;;;;;;4970317;28;20039;-89
2022/09/08 02:47:34;;;;;;;5.35;2.75;;;20.50;99.90;;;;;;4976927;28;20045;-89
2022/09/08 02:50:00;;;;;;;8.55;2.90;;;20.50;99.90;;;;;;4980270;28;20495;-89
2022/09/08 02:52:28;;;;;;;7.78;3.47;;;20.50;99.90;;;;;;4964323;28;20026;-89
2022/09/08 02:54:54;;;;;;;7.22;3.60;;;20.50;99.90;;;;;;4992477;28;20471;-90
2022/09/08 02:57:20;;;;;;;8.35;3.22;;;20.40;99.90;;;;;;4960873;28;20023;-90
2022/09/08 02:59:46;;;;;;;9.98;3.58;;;20.40;99.90;;;;;;4960639;28;20531;-89
2022/09/08 03:02:11;;;;;;;7.30;3.08;;;20.40;99.90;;;;;;4974058;28;20380;-88
2022/09/08 03:04:37;;;;;;;8.07;2.97;;;20.40;99.90;;;;;;4976290;28;20122;-89
2022/09/08 03:07:03;;;;;;;8.88;3.35;;;20.40;99.90;;;;;;4977619;28;20034;-85
2022/09/08 03:09:29;;;;;;;6.95;3.53;;;20.40;99.90;;;;;;4978123;28;20412;-84
2022/09/08 03:11:55;;;;;;;8.88;3.83;;;20.30;99.90;;;;;;4964739;28;20058;-89
2022/09/08 03:14:21;;;;;;;8.07;3.30;;;20.40;99.90;;;;;;4953517;28;20026;-90
2022/09/08 03:16:46;;;;;;;5.68;3.25;;;20.30;99.90;;;;;;4980747;28;20050;-88
2022/09/08 03:19:12;;;;;;;9.88;3.83;;;20.30;99.90;;;;;;4960861;28;20031;-84
2022/09/08 03:21:38;;;;;;;9.15;4.03;;;20.30;99.90;;;;;;4958785;28;20022;-84
2022/09/08 03:24:03;;;;;;;6.90;3.15;;;20.30;99.90;;;;;;4955900;28;20027;-86
2022/09/08 03:26:29;;;;;;;6.95;3.33;;;20.30;99.90;;;;;;4983350;28;20506;-84
2022/09/08 03:28:55;;;;;;;8.00;3.50;;;20.30;99.90;;;;;;4977511;28;20026;-84
2022/09/08 03:31:21;;;;;;;8.57;4.03;;;20.30;99.90;;;;;;4993529;28;20034;-85
2022/09/08 03:33:47;;;;;;;5.60;3.63;;;20.30;99.90;;;;;;4994799;28;20030;-89
2022/09/08 03:39:35;;;;;;;4.68;3.15;;;20.20;99.90;;;;;;4978497;28;20122;-89
2022/09/08 03:42:00;;;;;;;8.15;3.47;;;20.20;99.90;;;;;;4991087;28;20062;-89
2022/09/08 03:44:26;;;;;;;8.35;3.88;;;20.20;99.90;;;;;;4959698;28;20051;-89
2022/09/08 03:46:52;;;;;;;6.43;3.30;;;20.20;99.90;;;;;;4990178;28;20030;-89
2022/09/08 03:49:17;;;;;;;5.95;3.50;;;20.20;99.90;;;;;;4979233;28;20035;-89
2022/09/08 03:51:43;;;;;;;7.72;3.33;;;20.20;99.90;;;;;;4950030;28;20124;-88
2022/09/08 03:56:54;;;;;;;5.38;2.90;;;20.20;99.90;;;;;;4962716;28;20061;-89
2022/09/08 03:59:19;;;;;;;7.75;3.05;;;20.20;99.90;;;;;;4972095;28;20479;-89
2022/09/08 04:01:45;;;;;;;6.90;3.38;;;20.20;99.90;;;;;;4960831;28;20022;-89
2022/09/08 04:04:11;;;;;;;8.27;3.58;;;20.10;99.90;;;;;;4958604;28;20198;-89
2022/09/08 04:06:36;;;;;;;7.85;3.42;;;20.10;99.90;;;;;;4974650;28;20050;-90
2022/09/08 04:09:02;;;;;;;7.35;3.60;;;20.00;99.90;;;;;;4983649;28;20121;-88
2022/09/08 04:11:28;;;;;;;10.70;3.97;;;20.00;99.90;;;;;;4958916;28;20535;-90
2022/09/08 04:13:53;;;;;;;8.07;3.47;;;19.90;99.90;;;;;;4953043;29;20024;-89
2022/09/08 04:16:19;;;;;;;9.63;3.78;;;19.90;99.90;;;;;;4956007;28;20031;-90
2022/09/08 04:18:45;;;;;;;8.77;4.80;;;19.80;99.90;;;;;;4974861;28;20042;-90
2022/09/08 04:21:11;;;;;;;10.45;4.90;;;19.80;99.90;;;;;;4976724;28;20094;-89
2022/09/08 04:23:38;;;;;;;7.55;4.57;;;19.70;99.90;;;;;;4989460;28;20030;-89
2022/09/08 04:26:07;;;;;;;8.15;4.70;;;19.60;99.90;;;;;;4975487;28;20023;-89
2022/09/08 04:28:34;;;;;;;8.20;4.47;;;19.60;99.90;;;;;;4990007;28;20033;-89
2022/09/08 04:31:03;;;;;;;9.07;4.47;;;19.60;99.90;;;;;;4968886;28;20018;-89
2022/09/08 04:33:30;;;;;;;7.05;3.75;;;19.60;99.90;;;;;;4987100;28;20045;-89
2022/09/08 04:35:56;;;;;;;9.02;4.15;;;19.60;99.90;;;;;;4968882;28;20026;-89
2022/09/08 04:38:21;;;;;;;6.88;3.17;;;19.60;99.90;;;;;;4972632;28;20101;-90
2022/09/08 04:40:47;;;;;;;6.70;2.90;;;19.60;99.90;;;;;;4981057;28;20027;-89
2022/09/08 04:43:13;;;;;;;8.75;2.90;;;19.60;99.90;;;;;;4962832;28;20046;-90
2022/09/08 04:45:39;;;;;;;5.55;2.78;;;19.50;99.90;;;;;;4948055;29;20122;-91
2022/09/08 04:48:05;;;;;;;5.40;3.13;;;19.50;99.90;;;;;;4965882;28;20097;-91
2022/09/08 04:50:30;;;;;;;7.18;3.33;;;19.40;99.90;;;;;;4959394;28;20058;-91
2022/09/08 04:52:56;;;;;;;6.88;2.85;;;19.40;99.90;;;;;;4962369;28;20066;-90
2022/09/08 04:55:21;;;;;;;7.72;2.97;;;19.30;99.90;;;;;;4957665;28;20015;-90
2022/09/08 04:57:47;;;;;;;10.95;3.53;;;19.30;99.90;;;;;;4964213;28;20388;-90
2022/09/08 05:00:13;;;;;;;5.88;2.70;;;19.20;99.90;;;;;;4983090;28;20101;-87
2022/09/08 05:02:39;;;;;;;7.05;3.08;;;19.10;99.90;;;;;;4970311;28;20031;-85
2022/09/08 05:05:06;;;;;;;9.75;3.33;;;19.10;99.90;;;;;;4978096;28;20027;-84
2022/09/08 05:07:32;;;;;;;7.50;3.45;;;19.10;99.90;;;;;;4976852;28;20014;-86
2022/09/08 05:09:57;;;;;;;9.25;3.40;;;19.10;99.90;;;;;;4976520;28;20031;-87
2022/09/08 05:12:23;;;;;;;8.15;3.78;;;19.00;99.90;;;;;;4978307;28;20105;-86
2022/09/08 05:14:49;;;;;;;7.95;4.13;;;19.00;99.90;;;;;;4960661;28;20038;-87
2022/09/08 05:17:17;;;;;;;12.75;4.47;;;18.90;99.90;;;;;;4952225;28;20026;-87
2022/09/08 05:19:42;;;;;;;8.25;3.70;;;18.90;99.90;;;;;;4976688;28;20031;-86
2022/09/08 05:22:08;;;;;;;8.18;3.65;;;18.80;99.90;;;;;;4960366;28;20122;-86
2022/09/08 05:24:34;;;;;;;8.98;4.10;;;18.80;99.90;;;;;;4951382;28;20081;-86
2022/09/08 05:26:59;;;;;;;8.68;4.15;;;18.80;99.90;;;;;;4960212;28;20038;-86
2022/09/08 05:29:40;;;;;;;7.75;3.60;;;18.80;99.90;;;;;;4953884;28;20526;-86
2022/09/08 05:32:06;;;;;;;7.22;3.55;;;18.80;99.90;;;;;;4991410;28;20042;-86
2022/09/08 05:34:32;;;;;;;8.93;4.05;;;18.80;99.90;;;;;;4970944;28;20137;-87
2022/09/08 05:36:58;;;;;;;8.40;3.83;;;18.70;99.90;;;;;;4940826;29;20477;-86
2022/09/08 05:39:23;;;;;;;13.65;4.35;;;18.70;99.90;;;;;;4973547;28;20038;-85
2022/09/08 05:41:49;;;;;;;5.78;3.58;;;18.70;99.90;;;;;;4958707;28;20472;-85
2022/09/08 05:44:15;;;;;;;7.25;3.42;;;18.70;99.90;;;;;;4956585;28;20055;-85
2022/09/08 05:46:41;;;;;;;9.57;4.63;;;18.70;99.90;;;;;;4956737;28;20142;-85
2022/09/08 05:49:06;;;;;;;8.65;4.50;;;18.80;99.90;;;;;;4980331;28;20484;-87
2022/09/08 05:54:01;;;;;;;8.85;4.45;;;18.80;99.90;;;;;;5032435;28;20050;-87
2022/09/08 05:56:27;;;;;;;9.38;4.70;;;18.80;99.90;;;;;;5034702;28;20022;-86
2022/09/08 05:58:55;;;;;;;7.65;4.28;;;18.80;99.90;;;;;;5034571;28;20124;-85
2022/09/08 06:01:21;;;;;;;8.57;4.68;;;18.80;99.90;;;;;;5018078;28;20485;-86
2022/09/08 06:03:51;;;;;;;9.32;4.70;;;18.80;99.90;;;;;;5034257;28;20026;-85
2022/09/08 06:06:17;;;;;;;12.13;5.22;;;18.70;99.90;;;;;;5011869;28;20045;-85
2022/09/08 06:08:43;;;;;;;16.50;5.75;;;18.70;99.90;;;;;;4991595;28;20379;-85
2022/09/08 06:11:10;;;;;;;10.82;5.30;;;18.60;99.90;;;;;;4998248;28;20375;-86
2022/09/08 06:13:37;;;;;;;8.93;5.72;;;18.60;99.90;;;;;;4998303;28;20018;-83
2022/09/08 06:16:03;;;;;;;10.55;5.18;;;18.50;99.90;;;;;;5001170;28;20091;-85
2022/09/08 06:18:32;;;;;;;11.95;5.72;;;18.60;99.90;;;;;;5034194;28;20037;-85
2022/09/08 06:20:58;;;;;;;11.15;5.25;;;18.50;99.90;;;;;;5020285;28;20022;-85
2022/09/08 06:23:23;;;;;;;10.82;5.80;;;18.50;99.90;;;;;;5034817;28;20038;-90
2022/09/08 06:25:49;;;;;;;10.27;5.43;;;18.50;99.90;;;;;;5005217;28;20116;-88
2022/09/08 06:28:21;;;;;;;10.15;5.45;;;18.40;99.90;;;;;;5029206;28;20069;-90
2022/09/08 06:30:50;;;;;;;9.50;4.90;;;18.40;99.90;;;;;;5016521;28;20084;-90
2022/09/08 06:33:23;;;;;;;10.35;5.10;;;18.30;99.90;;;;;;5029329;28;20029;-91
2022/09/08 06:35:59;;;;;;;10.18;4.95;;;18.30;99.90;;;;;;4998043;28;20021;-90
2022/09/08 06:38:50;;;;;;;10.75;5.70;;;18.20;99.90;;;;;;4997006;28;20030;-90
2022/09/08 06:41:30;;;;;;;12.00;6.00;;;18.20;99.90;;;;;;4997599;28;20038;-90
2022/09/08 06:44:20;;;;;;;12.95;5.25;;;18.20;99.90;;;;;;4998141;28;20060;-90
2022/09/08 06:46:46;;;;;;;11.15;5.65;;;18.20;99.90;;;;;;5017677;28;20014;-88
2022/09/08 06:49:13;;;;;;;13.90;5.53;;;18.20;99.90;;;;;;5008831;28;20022;-90
2022/09/08 06:52:01;;;;;;;11.48;5.65;;;18.20;99.90;;;;;;4983408;28;20040;-88
2022/09/08 06:54:48;;;;;;;10.73;5.75;;;18.10;99.90;;;;;;5023961;28;20041;-91
2022/09/08 06:57:42;;;;;;;13.57;5.60;;;18.10;99.90;;;;;;5014521;28;20053;-91
2022/09/08 07:00:19;;;;;;;13.48;6.05;;;18.10;99.90;;;;;;5029106;28;20025;-90
2022/09/08 07:03:06;;;;;;;14.25;6.10;;;18.10;99.90;;;;;;5025716;28;20448;-90
2022/09/08 07:05:42;;;;;;;11.07;6.10;;;18.10;99.90;;;;;;5031785;28;20045;-91
2022/09/08 07:08:26;;;;;;;10.80;6.22;;;18.10;99.90;;;;;;5025098;28;20104;-91
2022/09/08 07:11:12;;;;;;;12.82;6.72;;;18.00;99.90;;;;;;5014444;28;20079;-90
2022/09/08 07:13:46;;;;;;;11.35;6.72;;;18.00;99.90;;;;;;4998421;28;20432;-91
2022/09/08 07:16:22;;;;;;;13.02;6.70;;;18.00;99.90;;;;;;5005503;28;20026;-92
2022/09/08 07:19:02;;;;;;;11.60;6.35;;;18.00;99.90;;;;;;5002566;28;20018;-91
2022/09/08 07:21:27;;;;;;;11.48;6.80;;;17.90;99.90;;;;;;5006303;28;20025;-92
2022/09/08 07:23:57;;;;;;;11.02;7.60;;;18.00;99.90;;;;;;5001814;28;20437;-92
2022/09/08 07:26:47;;;;;;;11.82;7.25;;;18.00;99.90;;;;;;4981882;28;20026;-91
2022/09/08 07:29:29;;;;;;;12.48;6.78;;;18.00;99.90;;;;;;4998511;28;20048;-91
2022/09/08 07:31:57;;;;;;;11.13;7.13;;;17.90;99.90;;;;;;4997855;28;20026;-91
2022/09/08 07:34:25;;;;;;;13.68;7.13;;;18.00;99.90;;;;;;4997159;28;20018;-89
2022/09/08 07:37:17;;;;;;;11.15;7.20;;;17.90;99.90;;;;;;4997282;28;20010;-89
2022/09/08 07:39:51;;;;;;;9.27;6.07;;;17.90;99.90;;;;;;5016064;28;20030;-88
2022/09/08 07:42:17;;;;;;;10.38;6.30;;;18.00;99.90;;;;;;5025462;28;20053;-92
2022/09/08 07:44:43;;;;;;;9.23;6.32;;;18.00;99.90;;;;;;4991979;28;20034;-92
2022/09/08 07:47:52;;;;;;;9.80;6.32;;;18.00;99.90;;;;;;5033724;28;20025;-92
2022/09/08 07:50:55;;;;;;;10.23;6.20;;;18.00;99.90;;;;;;5030177;28;20030;-92
2022/09/08 07:53:40;;;;;;;10.95;6.47;;;18.00;99.90;;;;;;5026613;28;20046;-91
2022/09/08 07:56:14;;;;;;;9.68;6.65;;;18.00;99.90;;;;;;4997209;28;20025;-91
2022/09/08 07:58:42;;;;;;;10.65;7.40;;;18.00;99.90;;;;;;4997527;28;20447;-92
2022/09/08 08:01:26;;;;;;;13.20;7.13;;;18.00;99.90;;;;;;4997488;28;20109;-92
2022/09/08 08:04:27;;;;;;;11.93;7.85;;;18.00;99.90;;;;;;4996377;28;20186;-92
2022/09/08 08:06:55;;;;;;;10.45;7.50;;;18.00;99.90;;;;;;4996980;28;20028;-91
2022/09/08 08:09:57;;;;;;;11.32;7.20;;;17.90;99.90;;;;;;5003684;28;20014;-92
2022/09/08 08:12:26;;;;;;;11.93;7.00;;;17.90;99.90;;;;;;5012311;28;20113;-91
2022/09/08 08:15:02;;;;;;;10.85;7.03;;;17.90;99.90;;;;;;5004539;28;20026;-89
2022/09/08 08:17:42;;;;;;;10.85;7.13;;;17.90;99.90;;;;;;5010568;28;20608;-89
2022/09/08 08:20:15;;;;;;;7.88;6.18;;;17.90;99.90;;;;;;5014577;28;20045;-90
2022/09/08 08:22:47;;;;;;;10.20;7.28;;;17.90;99.90;;;;;;4996825;28;20163;-90
2022/09/08 08:25:31;;;;;;;11.35;7.53;;;18.00;99.90;;;;;;5013414;28;20030;-90
2022/09/08 08:28:19;;;;;;;12.23;8.13;;;18.00;99.90;;;;;;4997474;28;20022;-90
2022/09/08 08:31:19;;;;;;;12.00;8.25;;;18.00;99.90;;;;;;5003897;28;20483;-90
2022/09/08 08:33:56;;;;;;;12.50;9.00;;;18.00;99.90;;;;;;5017123;28;20503;-90
2022/09/08 08:36:26;;;;;;;13.05;8.70;;;18.00;99.90;;;;;;5011977;28;20057;-90
2022/09/08 08:39:04;;;;;;;13.63;8.88;;;18.00;99.90;;;;;;5021035;28;20356;-89
2022/09/08 08:41:35;;;;;;;13.10;9.82;;;18.10;99.90;;;;;;5013348;28;20018;-90
2022/09/08 08:44:24;;;;;;;12.73;9.13;;;18.10;99.90;;;;;;5021765;28;20036;-92
2022/09/08 08:47:09;;;;;;;14.13;10.07;;;18.10;99.90;;;;;;4999904;28;20034;-90
2022/09/08 08:50:22;;;;;;;18.35;11.82;;;18.10;99.90;;;;;;5026379;28;20204;-88
2022/09/08 08:52:50;;;;;;;17.67;11.27;;;18.10;99.90;;;;;;4955897;28;20051;-89
2022/09/08 08:55:40;;;;;;;14.65;10.43;;;18.10;99.90;;;;;;5002824;28;20045;-89
2022/09/08 08:58:33;;;;;;;16.63;9.82;;;18.20;99.90;;;;;;5030798;28;20030;-89
2022/09/08 09:01:39;;;;;;;14.60;9.38;;;18.10;99.90;;;;;;5014392;28;20099;-91
2022/09/08 09:04:31;;;;;;;13.80;8.90;;;18.10;99.90;;;;;;4990878;28;20141;-89
2022/09/08 09:07:29;;;;;;;12.55;8.20;;;18.20;99.90;;;;;;4994366;28;20026;-90
2022/09/08 09:10:19;;;;;;;13.65;8.73;;;18.20;99.90;;;;;;4994494;28;20110;-90
2022/09/08 09:13:03;;;;;;;13.68;8.27;;;18.20;99.90;;;;;;5012843;28;20021;-90
2022/09/08 09:16:10;;;;;;;12.52;7.90;;;18.20;99.90;;;;;;5017597;28;20021;-92
2022/09/08 09:19:10;;;;;;;12.82;7.90;;;18.30;99.90;;;;;;5017031;28;20085;-91
2022/09/08 09:21:54;;;;;;;13.02;8.27;;;18.30;99.90;;;;;;5007649;28;20025;-91
2022/09/08 09:24:36;;;;;;;9.60;7.20;;;18.20;99.90;;;;;;5004299;28;20025;-92
2022/09/08 09:27:33;;;;;;;13.25;8.27;;;18.20;99.90;;;;;;5001161;28;20030;-92
2022/09/08 09:30:18;;;;;;;10.38;7.63;;;18.20;99.90;;;;;;5007621;28;20034;-91
2022/09/08 09:33:18;;;;;;;9.80;6.88;;;18.20;99.90;;;;;;4989957;28;20117;-92
2022/09/08 09:35:43;;;;;;;11.07;7.35;;;18.30;99.90;;;;;;5010853;28;20022;-92
2022/09/08 09:38:44;;;;;;;10.95;6.78;;;18.30;99.90;;;;;;5013570;28;20449;-92
2022/09/08 09:41:24;;;;;;;9.43;6.22;;;18.40;99.90;;;;;;5000468;28;20033;-92
2022/09/08 09:44:19;;;;;;;9.73;6.57;;;18.40;99.90;;;;;;5009847;28;20387;-91
2022/09/08 09:47:24;;;;;;;10.00;6.25;;;18.50;99.90;;;;;;4998783;28;20033;-93
2022/09/08 09:49:59;;;;;;;9.05;5.53;;;18.50;99.90;;;;;;5021983;28;20030;-90
2022/09/08 09:52:40;;;;;;;6.88;4.80;;;18.60;99.90;;;;;;5002576;28;20038;-90
2022/09/08 09:55:14;;;;;;;11.55;5.70;;;18.60;99.90;;;;;;5012660;28;20037;-91
2022/09/08 09:58:07;;;;;;;9.88;5.30;;;18.60;99.90;;;;;;5005287;28;20025;-90
2022/09/08 10:01:01;;;;;;;9.73;6.10;;;18.60;99.90;;;;;;5036729;28;20036;-89
2022/09/08 10:04:02;;;;;;;8.32;6.53;;;18.60;99.90;;;;;;5020243;28;20026;-90
2022/09/08 10:06:56;;;;;;;12.60;6.25;;;18.50;99.90;;;;;;5010778;28;20037;-88
2022/09/08 10:09:47;;;;;;;10.25;6.43;;;18.50;99.90;;;;;;5026764;28;20021;-90
2022/09/08 10:12:31;;;;;;;8.98;6.10;;;18.50;99.90;;;;;;5022594;28;20057;-94
2022/09/08 10:15:30;;;;;;;8.75;6.05;;;18.50;99.90;;;;;;5030876;28;20041;-91
2022/09/08 10:18:48;;;;;;;;;;;;;;;;;;;;;
2022/09/08 10:21:37;;;;;;;9.93;6.18;;;18.60;99.90;;;;;;5018724;28;20134;-88
2022/09/08 10:24:08;;;;;;;9.60;6.15;;;18.60;99.90;;;;;;5015408;28;20382;-88
2022/09/08 10:27:08;;;;;;;8.07;5.88;;;18.60;99.90;;;;;;5023275;28;20049;-88
2022/09/08 10:30:10;;;;;;;8.80;6.95;;;18.70;99.90;;;;;;5009663;28;20026;-88
2022/09/08 10:33:13;;;;;;;9.98;7.07;;;18.70;99.90;;;;;;5025226;28;20025;-87
2022/09/08 10:35:43;;;;;;;9.35;6.50;;;18.70;99.90;;;;;;5024684;28;20025;-87
2022/09/08 10:38:30;;;;;;;9.10;5.85;;;18.80;99.90;;;;;;5006344;28;20101;-86
2022/09/08 10:40:55;;;;;;;6.97;4.35;;;18.80;99.90;;;;;;5021011;28;20026;-89
2022/09/08 10:43:43;;;;;;;7.28;4.00;;;18.80;99.90;;;;;;5029313;28;20463;-88
2022/09/08 10:46:33;;;;;;;8.85;3.63;;;18.80;99.90;;;;;;5014704;28;20068;-88
2022/09/08 10:49:10;;;;;;;6.13;3.70;;;18.90;99.90;;;;;;5002209;28;20056;-88
2022/09/08 10:51:39;;;;;;;6.28;3.90;;;18.90;99.90;;;;;;5026902;28;20111;-88
2022/09/08 10:54:28;;;;;;;6.38;3.72;;;18.80;99.90;;;;;;5014597;28;20045;-87
2022/09/08 10:56:58;;;;;;;6.93;4.15;;;18.80;99.90;;;;;;5024008;28;20140;-90
2022/09/08 10:59:27;;;;;;;5.40;3.80;;;18.80;99.90;;;;;;5018192;28;20022;-90
2022/09/08 11:02:25;;;;;;;7.05;4.50;;;18.80;99.90;;;;;;4999417;28;20108;-88
2022/09/08 11:05:13;;;;;;;9.00;3.80;;;18.80;99.90;;;;;;5020893;28;20048;-83
2022/09/08 11:08:27;;;;;;;5.80;4.10;;;18.90;99.90;;;;;;5015314;28;20424;-85
2022/09/08 11:11:03;;;;;;;7.15;4.00;;;18.90;99.90;;;;;;4971210;28;20499;-84
2022/09/08 11:14:02;;;;;;;7.82;3.85;;;19.10;99.90;;;;;;5005421;28;20040;-83
2022/09/08 11:16:44;;;;;;;6.40;4.07;;;19.10;99.90;;;;;;4995550;28;20030;-83
2022/09/08 11:19:18;;;;;;;6.32;3.17;;;19.20;99.90;;;;;;5016944;28;20122;-83
2022/09/08 11:22:22;;;;;;;5.13;3.00;;;19.20;99.90;;;;;;5021228;28;20031;-84
2022/09/08 11:25:15;;;;;;;4.78;2.90;;;19.20;99.90;;;;;;5013595;28;20022;-84
2022/09/08 11:28:14;;;;;;;6.88;2.72;;;19.30;99.90;;;;;;4997439;28;20033;-82
2022/09/08 11:31:04;;;;;;;7.10;2.53;;;19.40;99.90;;;;;;5025156;28;20077;-82
2022/09/08 11:33:48;;;;;;;5.72;2.05;;;19.50;99.90;;;;;;5014333;28;20022;-83
2022/09/08 11:36:51;;;;;;;5.78;1.77;;;19.50;99.90;;;;;;5011421;28;20018;-84
2022/09/08 11:39:55;;;;;;;5.57;1.88;;;19.50;99.90;;;;;;5003750;28;20123;-84
2022/09/08 11:42:26;;;;;;;6.35;1.60;;;19.50;99.90;;;;;;5012551;28;20388;-83
2022/09/08 11:45:01;;;;;;;8.05;2.20;;;19.50;99.90;;;;;;5008051;28;20038;-83
2022/09/08 11:48:05;;;;;;;5.88;2.00;;;19.50;99.90;;;;;;5012008;28;20022;-84
2022/09/08 11:50:46;;;;;;;5.55;2.13;;;19.50;99.90;;;;;;4996072;28;20387;-84
2022/09/08 11:53:21;;;;;;;;;;;19.50;99.90;;;;;;4999067;28;20095;-84
2022/09/08 11:56:06;;;;;;;5.93;1.80;;;19.50;99.90;;;;;;5018177;28;19988;-84
2022/09/08 11:58:46;;;;;;;5.78;1.70;;;19.50;99.90;;;;;;5026357;28;20037;-84
2022/09/08 12:01:34;;;;;;;4.35;1.83;;;19.60;99.90;;;;;;5015593;28;20541;-84
2022/09/08 12:04:28;;;;;;;4.90;2.10;;;19.70;99.90;;;;;;5012889;28;20021;-84
2022/09/08 12:07:05;;;;;;;7.00;2.20;;;19.80;99.90;;;;;;5029097;28;20034;-83
2022/09/08 12:09:54;;;;;;;5.80;2.00;;;19.80;99.90;;;;;;4996366;28;20018;-84
2022/09/08 12:12:41;;;;;;;5.95;1.88;;;19.90;99.90;;;;;;5011179;28;20022;-84
2022/09/08 12:15:27;;;;;;;6.95;1.80;;;20.00;99.90;;;;;;5013515;28;20018;-84
2022/09/08 12:18:14;;;;;;;7.05;2.03;;;20.00;99.90;;;;;;5013024;28;20050;-84
2022/09/08 12:21:02;;;;;;;6.68;1.95;;;20.10;99.90;;;;;;5012103;28;20388;-85
2022/09/08 12:23:39;;;;;;;6.72;1.75;;;20.10;99.90;;;;;;4995852;28;20030;-85
2022/09/08 12:26:33;;;;;;;6.78;1.77;;;20.20;99.90;;;;;;4995829;28;20026;-85
2022/09/08 12:29:21;;;;;;;6.32;2.08;;;20.20;99.90;;;;;;4997011;28;20542;-93
2022/09/08 12:31:53;;;;;;;6.82;1.92;;;20.30;99.90;;;;;;5005637;28;20057;-90
2022/09/08 12:34:37;;;;;;;7.28;1.88;;;20.30;99.90;;;;;;5004065;28;20441;-92
2022/09/08 12:37:08;;;;;;;5.93;1.45;;;20.40;99.90;;;;;;5005805;28;20022;-92
2022/09/08 12:39:47;;;;;;;6.50;1.67;;;20.40;99.90;;;;;;5008591;28;20036;-92
2022/09/08 12:42:25;;;;;;;6.63;1.88;;;20.50;99.90;;;;;;5022211;28;20022;-92
2022/09/08 12:45:22;;;;;;;7.97;2.03;;;20.60;99.90;;;;;;5012186;28;20023;-93
2022/09/08 12:47:57;;;;;;;5.55;1.60;;;20.60;99.90;;;;;;5026241;28;20030;-93
2022/09/08 12:50:37;;;;;;;4.95;1.40;;;20.70;99.90;;;;;;5024974;28;20033;-93
2022/09/08 12:53:02;;;;;;;4.85;1.40;;;20.80;99.90;;;;;;5015775;28;20074;-94
2022/09/08 12:55:45;;;;;;;3.50;0.95;;;20.90;98.20;;;;;;5024227;28;20481;-93
2022/09/08 12:58:52;;;;;;;8.35;2.08;;;20.90;97.90;;;;;;5014630;28;20041;-93
2022/09/08 13:01:41;;;;;;;4.63;1.45;;;21.00;98.30;;;;;;5006103;28;20031;-93
2022/09/08 13:04:49;;;;;;;4.70;1.38;;;21.10;97.70;;;;;;5018713;28;20018;-92
2022/09/08 13:07:53;;;;;;;4.20;1.50;;;21.10;98.40;;;;;;5004077;28;20109;-93
2022/09/08 13:10:35;;;;;;;4.40;1.27;;;21.20;98.80;;;;;;5010089;28;20045;-91
2022/09/08 13:13:34;;;;;;;4.88;1.38;;;21.30;98.30;;;;;;5014915;28;20093;-92
2022/09/08 13:16:13;;;;;;;5.00;1.38;;;21.30;98.00;;;;;;5008051;28;20118;-92
2022/09/08 13:19:02;;;;;;;8.82;2.22;;;21.50;97.70;;;;;;5012369;28;20027;-91
2022/09/08 13:21:41;;;;;;;6.95;1.80;;;21.50;97.10;;;;;;5006657;28;20037;-92
2022/09/08 13:24:24;;;;;;;6.65;1.80;;;21.60;97.40;;;;;;5010141;28;20066;-93
2022/09/08 13:26:53;;;;;;;4.88;1.25;;;21.70;97.20;;;;;;5027339;28;20033;-92
2022/09/08 13:29:41;;;;;;;5.55;1.73;;;21.70;96.30;;;;;;5011957;28;20023;-92
2022/09/08 13:32:21;;;;;;;6.65;1.55;;;21.70;96.00;;;;;;5012115;28;20026;-92
2022/09/08 13:35:07;;;;;;;7.47;1.55;;;21.80;96.10;;;;;;5014980;28;20042;-91
2022/09/08 13:37:39;;;;;;;5.80;1.52;;;21.90;96.10;;;;;;5002681;28;20030;-90
2022/09/08 13:40:34;;;;;;;5.93;1.52;;;21.90;96.70;;;;;;5006431;28;20026;-90
2022/09/08 13:43:09;;;;;;;5.38;1.50;;;22.00;95.90;;;;;;5017767;28;20022;-91
2022/09/08 13:45:48;;;;;;;5.13;1.20;;;22.00;95.90;;;;;;5001241;28;20116;-92
2022/09/08 13:48:26;;;;;;;4.65;1.27;;;22.00;96.00;;;;;;5007183;28;20033;-91
2022/09/08 13:50:56;;;;;;;6.80;1.40;;;22.10;95.90;;;;;;5007897;28;20479;-92
2022/09/08 13:53:56;;;;;;;5.60;1.43;;;22.10;95.60;;;;;;4996883;28;20153;-92